createdAt,value
2023-08-25T00:01:35.738Z,20.80
2023-08-25T00:04:03.277Z,20.80
2023-08-25T00:06:30.219Z,20.80
2023-08-25T00:08:56.996Z,20.80
2023-08-25T00:11:23.882Z,20.80
2023-08-25T00:13:50.838Z,20.90
2023-08-25T00:16:17.742Z,20.80
2023-08-25T00:18:45.620Z,20.90
2023-08-25T00:21:14.378Z,20.80
2023-08-25T00:23:41.206Z,20.90
2023-08-25T00:26:09.284Z,20.80
2023-08-25T00:28:36.743Z,20.80
2023-08-25T00:31:03.788Z,20.90
2023-08-25T00:33:30.782Z,20.90
2023-08-25T00:35:57.624Z,20.90
2023-08-25T00:38:29.243Z,20.80
2023-08-25T00:40:56.422Z,20.80
2023-08-25T00:43:23.244Z,20.80
2023-08-25T00:45:50.447Z,20.80
2023-08-25T00:48:18.525Z,20.80
2023-08-25T00:50:46.381Z,20.80
2023-08-25T00:53:13.900Z,20.80
2023-08-25T00:55:40.911Z,20.80
2023-08-25T00:58:09.165Z,20.70
2023-08-25T01:00:36.961Z,20.80
2023-08-25T01:03:04.253Z,20.80
2023-08-25T01:05:31.125Z,20.80
2023-08-25T01:07:58.605Z,20.80
2023-08-25T01:10:56.537Z,20.80
2023-08-25T01:13:40.991Z,20.80
2023-08-25T01:16:13.229Z,20.80
2023-08-25T01:18:41.764Z,20.80
2023-08-25T01:21:10.058Z,20.80
2023-08-25T01:23:45.861Z,20.80
2023-08-25T01:26:13.439Z,20.80
2023-08-25T01:28:42.412Z,20.80
2023-08-25T01:31:10.866Z,20.70
2023-08-25T01:33:40.454Z,20.80
2023-08-25T01:36:30.216Z,20.80
2023-08-25T01:39:11.526Z,20.70
2023-08-25T01:41:47.654Z,20.70
2023-08-25T01:44:17.885Z,20.80
2023-08-25T01:46:51.245Z,20.80
2023-08-25T01:49:20.527Z,20.70
2023-08-25T01:51:47.678Z,20.70
2023-08-25T01:54:14.761Z,20.70
2023-08-25T01:56:41.931Z,20.70
2023-08-25T01:59:09.034Z,20.70
2023-08-25T02:01:35.888Z,20.60
2023-08-25T02:04:03.814Z,20.70
2023-08-25T02:06:31.634Z,20.60
2023-08-25T02:08:58.599Z,20.60
2023-08-25T02:11:28.298Z,20.60
2023-08-25T02:13:55.187Z,20.60
2023-08-25T02:16:22.000Z,20.60
2023-08-25T02:18:48.882Z,20.60
2023-08-25T02:21:16.144Z,20.60
2023-08-25T02:23:44.901Z,20.50
2023-08-25T02:26:11.732Z,20.50
2023-08-25T02:28:38.559Z,20.60
2023-08-25T02:31:05.918Z,20.50
2023-08-25T02:33:35.166Z,20.50
2023-08-25T02:36:01.962Z,20.50
2023-08-25T02:38:28.774Z,20.50
2023-08-25T02:40:56.049Z,20.50
2023-08-25T02:43:22.885Z,20.40
2023-08-25T02:45:49.819Z,20.50
2023-08-25T02:48:18.851Z,20.50
2023-08-25T02:50:47.094Z,20.50
2023-08-25T02:53:14.146Z,20.50
2023-08-25T02:55:40.933Z,20.50
2023-08-25T02:58:07.704Z,20.50
2023-08-25T03:00:34.823Z,20.60
2023-08-25T03:03:01.677Z,20.60
2023-08-25T03:05:28.627Z,20.60
2023-08-25T03:07:56.249Z,20.60
2023-08-25T03:10:24.230Z,20.50
2023-08-25T03:12:52.535Z,20.50
2023-08-25T03:15:19.462Z,20.60
2023-08-25T03:17:46.699Z,20.50
2023-08-25T03:20:13.676Z,20.50
2023-08-25T03:22:48.798Z,20.50
2023-08-25T03:25:15.660Z,20.50
2023-08-25T03:27:42.673Z,20.50
2023-08-25T03:30:11.580Z,20.50
2023-08-25T03:32:38.575Z,20.50
2023-08-25T03:35:08.104Z,20.50
2023-08-25T03:37:34.942Z,20.50
2023-08-25T03:40:07.376Z,20.50
2023-08-25T03:42:34.359Z,20.40
2023-08-25T03:45:03.408Z,20.40
2023-08-25T03:47:30.266Z,20.40
2023-08-25T03:50:02.745Z,20.40
2023-08-25T03:52:32.229Z,20.40
2023-08-25T03:55:03.060Z,20.40
2023-08-25T03:57:30.034Z,20.40
2023-08-25T03:59:57.781Z,20.30
2023-08-25T04:02:24.698Z,20.30
2023-08-25T04:04:52.158Z,20.30
2023-08-25T04:07:20.454Z,20.20
2023-08-25T04:09:50.243Z,20.20
2023-08-25T04:12:17.287Z,20.20
2023-08-25T04:14:45.998Z,20.20
2023-08-25T04:17:13.162Z,20.10
2023-08-25T04:19:40.162Z,20.10
2023-08-25T04:22:07.566Z,20.10
2023-08-25T04:24:34.425Z,20.00
2023-08-25T04:27:01.258Z,20.00
2023-08-25T04:29:28.710Z,20.00
2023-08-25T04:31:57.577Z,20.00
2023-08-25T04:34:34.261Z,20.00
2023-08-25T04:37:07.290Z,20.00
2023-08-25T04:39:35.131Z,20.10
2023-08-25T04:42:03.080Z,20.10
2023-08-25T04:44:29.821Z,20.10
2023-08-25T04:46:57.213Z,20.10
2023-08-25T04:49:24.144Z,20.10
2023-08-25T04:51:54.170Z,20.10
2023-08-25T04:54:21.787Z,20.00
2023-08-25T04:56:52.710Z,20.00
2023-08-25T04:59:22.371Z,20.00
2023-08-25T05:01:50.249Z,20.00
2023-08-25T05:04:21.638Z,20.10
2023-08-25T05:06:51.385Z,20.10
2023-08-25T05:09:19.144Z,20.10
2023-08-25T05:11:46.284Z,20.10
2023-08-25T05:14:13.332Z,20.20
2023-08-25T05:16:45.069Z,20.20
2023-08-25T05:19:24.951Z,20.20
2023-08-25T05:21:52.016Z,20.20
2023-08-25T05:24:25.106Z,20.30
2023-08-25T05:26:54.301Z,20.40
2023-08-25T05:29:29.251Z,20.40
2023-08-25T05:32:01.077Z,20.50
2023-08-25T05:34:41.598Z,20.60
2023-08-25T05:37:10.480Z,20.70
2023-08-25T05:39:38.435Z,20.80
2023-08-25T05:42:09.234Z,20.90
2023-08-25T05:44:36.677Z,20.90
2023-08-25T05:47:09.374Z,21.00
2023-08-25T05:49:40.597Z,21.00
2023-08-25T05:52:08.525Z,21.10
2023-08-25T05:54:35.539Z,21.10
2023-08-25T05:57:03.163Z,21.10
2023-08-25T05:59:33.495Z,21.10
2023-08-25T06:02:00.517Z,21.10
2023-08-25T06:04:36.135Z,21.10
2023-08-25T06:07:05.317Z,21.10
2023-08-25T06:09:41.261Z,21.20
2023-08-25T06:16:41.297Z,21.20
2023-08-25T06:26:07.656Z,21.00
2023-08-25T06:33:38.267Z,21.00
2023-08-25T06:40:17.229Z,21.10
2023-08-25T06:42:55.653Z,21.10
2023-08-25T06:46:03.337Z,21.00
2023-08-25T06:48:58.769Z,20.80
2023-08-25T06:51:28.085Z,20.60
2023-08-25T06:53:58.922Z,20.50
2023-08-25T06:56:35.409Z,20.40
2023-08-25T06:59:05.417Z,20.40
2023-08-25T07:02:03.066Z,20.40
2023-08-25T07:04:49.841Z,20.40
2023-08-25T07:19:23.516Z,20.40
2023-08-25T07:29:37.584Z,20.40
2023-08-25T07:32:10.231Z,20.40
2023-08-25T07:35:00.811Z,20.40
2023-08-25T07:37:33.428Z,20.30
2023-08-25T07:40:15.577Z,20.30
2023-08-25T07:42:42.483Z,20.30
2023-08-25T07:45:18.427Z,20.30
2023-08-25T07:48:05.292Z,20.20
2023-08-25T07:51:04.891Z,20.20
2023-08-25T07:53:44.782Z,20.20
2023-08-25T07:56:12.172Z,20.20
2023-08-25T08:06:13.715Z,20.20
2023-08-25T08:08:27.296Z,20.20
2023-08-25T08:11:52.849Z,20.20
2023-08-25T08:14:40.077Z,20.20
2023-08-25T08:17:36.590Z,20.20
2023-08-25T08:20:14.647Z,20.20
2023-08-25T08:22:51.108Z,20.10
2023-08-25T08:25:18.011Z,20.10
2023-08-25T08:28:00.267Z,20.10
2023-08-25T08:31:16.285Z,20.10
2023-08-25T08:34:17.820Z,20.10
2023-08-25T08:37:16.121Z,20.10
2023-08-25T08:39:45.744Z,20.00
2023-08-25T08:42:49.321Z,20.00
2023-08-25T08:45:31.773Z,20.10
2023-08-25T08:48:30.138Z,20.00
2023-08-25T08:55:30.219Z,20.00
2023-08-25T08:58:13.967Z,20.00
2023-08-25T09:07:40.581Z,20.10
2023-08-25T09:10:13.759Z,20.20
2023-08-25T09:12:40.598Z,20.30
2023-08-25T09:18:57.185Z,20.40
2023-08-25T09:21:25.945Z,20.40
2023-08-25T09:24:25.125Z,20.40
2023-08-25T09:26:59.671Z,20.40
2023-08-25T09:32:08.341Z,20.60
2023-08-25T09:34:41.045Z,20.70
2023-08-25T09:37:08.858Z,20.80
2023-08-25T09:39:59.124Z,20.90
2023-08-25T09:42:29.546Z,21.00
2023-08-25T09:45:10.619Z,21.10
2023-08-25T09:47:46.915Z,21.10
2023-08-25T09:50:28.605Z,21.20
2023-08-25T09:53:09.517Z,21.30
2023-08-25T09:55:48.043Z,21.30
2023-08-25T09:58:33.754Z,21.40
2023-08-25T10:01:00.976Z,21.40
2023-08-25T10:03:31.200Z,21.30
2023-08-25T10:06:22.796Z,21.40
2023-08-25T10:08:57.166Z,21.50
2023-08-25T10:11:32.737Z,21.50
2023-08-25T10:14:04.036Z,21.60
2023-08-25T10:16:42.769Z,21.60
2023-08-25T10:19:39.273Z,21.70
2023-08-25T10:22:09.127Z,21.70
2023-08-25T10:24:40.732Z,21.80
2023-08-25T10:27:11.299Z,21.80
2023-08-25T10:29:47.737Z,21.90
2023-08-25T10:32:42.389Z,21.80
2023-08-25T10:35:48.429Z,21.70
2023-08-25T10:45:12.288Z,21.50
2023-08-25T10:47:53.833Z,21.50
2023-08-25T10:50:37.122Z,21.50
2023-08-25T10:53:40.241Z,21.60
2023-08-25T10:56:29.929Z,21.60
2023-08-25T10:59:22.505Z,21.70
2023-08-25T11:02:01.527Z,21.80
2023-08-25T11:04:38.056Z,21.90
2023-08-25T11:07:19.404Z,22.00
2023-08-25T11:09:46.479Z,22.00
2023-08-25T11:12:22.282Z,22.00
2023-08-25T11:17:42.240Z,22.00
2023-08-25T11:23:19.422Z,22.10
2023-08-25T11:25:51.176Z,22.20
2023-08-25T11:31:46.170Z,22.40
2023-08-25T11:34:30.228Z,22.60
2023-08-25T11:37:00.678Z,22.70
2023-08-25T11:39:52.030Z,22.70
2023-08-25T11:42:31.926Z,22.80
2023-08-25T11:45:14.750Z,22.80
2023-08-25T11:47:44.316Z,22.80
2023-08-25T11:50:15.572Z,22.90
2023-08-25T11:52:42.699Z,22.90
2023-08-25T11:55:45.517Z,23.00
2023-08-25T11:58:19.640Z,23.10
2023-08-25T12:04:29.226Z,23.30
2023-08-25T12:07:10.607Z,23.40
2023-08-25T12:10:06.518Z,23.50
2023-08-25T12:16:04.934Z,23.50
2023-08-25T12:18:46.087Z,23.50
2023-08-25T12:22:17.826Z,23.40
2023-08-25T12:25:09.322Z,23.50
2023-08-25T12:27:51.537Z,23.40
2023-08-25T12:30:41.844Z,23.40
2023-08-25T12:33:39.939Z,23.40
2023-08-25T12:36:23.639Z,23.50
2023-08-25T12:38:56.752Z,23.50
2023-08-25T12:41:36.982Z,23.60
2023-08-25T12:44:06.733Z,23.60
2023-08-25T12:46:40.177Z,23.70
2023-08-25T12:49:21.106Z,23.80
2023-08-25T12:52:33.153Z,23.80
2023-08-25T12:55:22.292Z,23.90
2023-08-25T12:58:03.752Z,24.00
2023-08-25T13:00:31.096Z,24.00
2023-08-25T13:03:22.663Z,24.20
2023-08-25T13:06:36.280Z,24.20
2023-08-25T13:11:49.602Z,24.20
2023-08-25T13:15:08.824Z,24.20
2023-08-25T13:20:55.530Z,24.20
2023-08-25T13:31:15.769Z,24.30
2023-08-25T13:35:05.049Z,24.40
2023-08-25T13:48:42.312Z,24.90
2023-08-25T13:52:26.409Z,25.00
2023-08-25T13:59:32.848Z,25.00
2023-08-25T14:10:10.800Z,25.30
2023-08-25T14:16:14.024Z,25.30
2023-08-25T14:23:20.066Z,25.40
2023-08-25T14:26:25.357Z,25.30
2023-08-25T14:29:21.600Z,25.40
2023-08-25T14:37:02.270Z,25.50
2023-08-25T14:42:28.210Z,25.50
2023-08-25T14:45:27.558Z,25.50
2023-08-25T14:48:35.471Z,25.50
2023-08-25T15:07:45.645Z,25.70
2023-08-25T15:18:09.024Z,26.10
2023-08-25T15:24:46.561Z,26.50
2023-08-25T15:27:13.850Z,26.60
2023-08-25T15:29:51.054Z,26.80
2023-08-25T15:32:18.534Z,26.90
2023-08-25T15:34:45.363Z,26.80
2023-08-25T15:37:12.180Z,26.80
2023-08-25T15:39:39.098Z,26.70
2023-08-25T15:42:06.190Z,26.60
2023-08-25T15:44:32.914Z,26.50
2023-08-25T15:46:59.781Z,26.50
2023-08-25T15:49:26.588Z,26.50
2023-08-25T15:51:53.668Z,26.60
2023-08-25T15:54:20.393Z,26.80
2023-08-25T15:56:47.243Z,27.10
2023-08-25T15:59:14.212Z,27.40
2023-08-25T16:01:41.029Z,27.50
2023-08-25T16:04:07.977Z,27.70
2023-08-25T16:06:34.709Z,27.80
2023-08-25T16:09:01.463Z,28.10
2023-08-25T16:11:28.286Z,28.20
2023-08-25T16:13:55.094Z,28.20
2023-08-25T16:16:21.869Z,28.00
2023-08-25T16:18:48.732Z,28.10
2023-08-25T16:21:15.952Z,28.20
2023-08-25T16:23:42.751Z,28.30
2023-08-25T16:26:10.064Z,28.40
2023-08-25T16:28:40.618Z,28.50
2023-08-25T16:31:11.109Z,28.50
2023-08-25T16:33:40.382Z,28.50
2023-08-25T16:36:11.456Z,28.40
2023-08-25T16:38:38.417Z,28.10
2023-08-25T16:41:05.274Z,27.90
2023-08-25T16:43:32.010Z,27.80
2023-08-25T16:45:58.789Z,27.60
2023-08-25T16:48:25.700Z,27.80
2023-08-25T16:50:52.460Z,27.80
2023-08-25T16:53:26.305Z,27.90
2023-08-25T16:55:53.855Z,27.90
2023-08-25T16:58:21.881Z,27.80
2023-08-25T17:00:49.201Z,27.80
2023-08-25T17:03:16.334Z,27.70
2023-08-25T17:05:43.325Z,27.60
2023-08-25T17:08:10.240Z,27.50
2023-08-25T17:10:37.431Z,27.30
2023-08-25T17:13:05.439Z,27.00
2023-08-25T17:15:37.781Z,27.00
2023-08-25T17:18:05.929Z,26.90
2023-08-25T17:20:33.106Z,26.70
2023-08-25T17:22:59.942Z,26.60
2023-08-25T17:25:26.835Z,26.50
2023-08-25T17:27:54.781Z,26.50
2023-08-25T17:30:21.639Z,26.40
2023-08-25T17:32:50.788Z,26.30
2023-08-25T17:35:17.778Z,26.30
2023-08-25T17:37:44.609Z,26.20
2023-08-25T17:40:12.146Z,26.10
2023-08-25T17:42:38.887Z,26.10
2023-08-25T17:45:05.900Z,26.00
2023-08-25T17:47:32.929Z,26.00
2023-08-25T17:50:01.968Z,25.90
2023-08-25T17:52:28.823Z,25.90
2023-08-25T17:54:55.843Z,25.80
2023-08-25T17:57:22.636Z,25.70
2023-08-25T17:59:49.772Z,25.60
2023-08-25T18:02:16.784Z,25.50
2023-08-25T18:04:43.689Z,25.50
2023-08-25T18:07:13.135Z,25.50
2023-08-25T18:09:41.870Z,25.40
2023-08-25T18:12:09.576Z,25.40
2023-08-25T18:14:36.450Z,25.30
2023-08-25T18:17:06.219Z,25.20
2023-08-25T18:19:33.120Z,25.20
2023-08-25T18:22:01.351Z,25.10
2023-08-25T18:24:28.141Z,25.00
2023-08-25T18:27:00.653Z,24.90
2023-08-25T18:29:31.360Z,24.80
2023-08-25T18:31:59.978Z,24.70
2023-08-25T18:34:28.332Z,24.70
2023-08-25T18:36:55.122Z,24.70
2023-08-25T18:39:21.880Z,24.60
2023-08-25T18:41:49.719Z,24.50
2023-08-25T18:44:16.573Z,24.40
2023-08-25T18:46:44.489Z,24.50
2023-08-25T18:49:13.819Z,24.40
2023-08-25T18:51:42.718Z,24.40
2023-08-25T18:54:10.615Z,24.30
2023-08-25T18:56:39.622Z,24.30
2023-08-25T18:59:06.504Z,24.30
2023-08-25T19:01:33.374Z,24.20
2023-08-25T19:04:01.455Z,24.20
2023-08-25T19:06:28.714Z,24.10
2023-08-25T19:08:55.514Z,24.10
2023-08-25T19:11:22.823Z,24.10
2023-08-25T19:13:52.200Z,24.00
2023-08-25T19:16:19.037Z,23.90
2023-08-25T19:18:45.949Z,23.90
2023-08-25T19:21:13.002Z,23.80
2023-08-25T19:23:44.476Z,23.70
2023-08-25T19:26:11.887Z,23.70
2023-08-25T19:28:42.945Z,23.60
2023-08-25T19:31:12.691Z,23.70
2023-08-25T19:33:39.695Z,23.70
2023-08-25T19:36:06.919Z,23.80
2023-08-25T19:38:33.712Z,23.70
2023-08-25T19:41:06.477Z,23.70
2023-08-25T19:43:34.459Z,23.70
2023-08-25T19:46:01.482Z,23.70
2023-08-25T19:48:32.767Z,23.70
2023-08-25T19:50:59.613Z,23.60
2023-08-25T19:53:28.740Z,23.60
2023-08-25T19:55:56.942Z,23.50
2023-08-25T19:58:23.903Z,23.40
2023-08-25T20:00:50.920Z,23.40
2023-08-25T20:03:18.787Z,23.40
2023-08-25T20:06:07.138Z,23.40
2023-08-25T20:08:39.799Z,23.40
2023-08-25T20:11:09.317Z,23.40
2023-08-25T20:13:40.116Z,23.40
2023-08-25T20:16:09.656Z,23.40
2023-08-25T20:18:39.551Z,23.30
2023-08-25T20:21:11.554Z,23.30
2023-08-25T20:23:38.983Z,23.20
2023-08-25T20:26:06.530Z,23.30
2023-08-25T20:28:37.697Z,23.30
2023-08-25T20:31:04.645Z,23.30
2023-08-25T20:33:31.613Z,23.30
2023-08-25T20:35:59.374Z,23.30
2023-08-25T20:38:29.448Z,23.30
2023-08-25T20:40:57.818Z,23.30
2023-08-25T20:43:25.242Z,23.30
2023-08-25T20:46:17.702Z,23.30
2023-08-25T20:48:49.241Z,23.20
2023-08-25T20:51:23.899Z,23.20
2023-08-25T20:53:56.016Z,23.20
2023-08-25T20:56:25.754Z,23.20
2023-08-25T20:58:55.155Z,23.30
2023-08-25T21:01:22.232Z,23.20
2023-08-25T21:03:49.506Z,23.20
2023-08-25T21:06:16.473Z,23.20
2023-08-25T21:08:43.300Z,23.30
2023-08-25T21:11:12.752Z,23.30
2023-08-25T21:13:39.520Z,23.30
2023-08-25T21:16:06.472Z,23.30
2023-08-25T21:18:36.005Z,23.40
2023-08-25T21:21:03.071Z,23.30
2023-08-25T21:23:29.891Z,23.30
2023-08-25T21:26:02.318Z,23.40
2023-08-25T21:28:29.608Z,23.30
2023-08-25T21:30:58.416Z,23.20
2023-08-25T21:33:27.172Z,23.10
2023-08-25T21:35:56.920Z,23.00
2023-08-25T21:38:23.676Z,22.90
2023-08-25T21:40:50.883Z,22.90
2023-08-25T21:43:17.742Z,22.80
2023-08-25T21:45:47.853Z,22.80
2023-08-25T21:48:15.136Z,22.70
2023-08-25T21:50:43.348Z,22.70
2023-08-25T21:53:10.146Z,22.70
2023-08-25T21:55:44.282Z,22.70
2023-08-25T21:58:11.065Z,22.70
2023-08-25T22:00:38.276Z,22.70
2023-08-25T22:03:08.072Z,22.60
2023-08-25T22:05:37.293Z,22.60
2023-08-25T22:08:04.631Z,22.60
2023-08-25T22:10:36.431Z,22.50
2023-08-25T22:13:04.297Z,22.40
2023-08-25T22:15:31.283Z,22.40
2023-08-25T22:18:02.200Z,22.40
2023-08-25T22:20:29.001Z,22.40
2023-08-25T22:22:56.197Z,22.40
2023-08-25T22:25:23.230Z,22.30
2023-08-25T22:27:50.033Z,22.40
2023-08-25T22:30:16.828Z,22.30
2023-08-25T22:35:13.690Z,22.40
2023-08-25T22:37:40.445Z,22.40
2023-08-25T22:40:07.904Z,22.40
2023-08-25T22:42:34.640Z,22.40
2023-08-25T22:45:01.391Z,22.30
2023-08-25T22:47:28.414Z,22.30
2023-08-25T22:49:55.214Z,22.30
2023-08-25T22:52:21.913Z,22.30
2023-08-25T22:54:51.433Z,22.30
2023-08-25T22:57:20.983Z,22.30
2023-08-25T22:59:47.699Z,22.30
2023-08-25T23:02:14.447Z,22.30
2023-08-25T23:04:48.821Z,22.30
2023-08-25T23:07:15.705Z,22.30
2023-08-25T23:09:42.650Z,22.20
2023-08-25T23:12:12.016Z,22.20
2023-08-25T23:14:38.869Z,22.10
2023-08-25T23:17:05.756Z,22.10
2023-08-25T23:19:32.547Z,22.00
2023-08-25T23:22:02.050Z,22.00
2023-08-25T23:24:45.543Z,22.00
2023-08-25T23:27:16.077Z,22.00
2023-08-25T23:29:45.332Z,22.00
2023-08-25T23:32:12.135Z,21.90
2023-08-25T23:34:38.897Z,21.90
2023-08-25T23:37:05.741Z,21.80
2023-08-25T23:39:33.500Z,21.80
2023-08-25T23:42:00.261Z,21.80
2023-08-25T23:44:30.996Z,21.70
2023-08-25T23:46:57.844Z,21.70
2023-08-25T23:49:27.431Z,21.70
2023-08-25T23:51:54.290Z,21.70
2023-08-25T23:54:21.171Z,21.70
2023-08-25T23:56:48.090Z,21.70
2023-08-25T23:59:15.580Z,21.70
